createdAt,value
2023-03-27T00:01:42.783Z,7.60
2023-03-27T00:04:17.861Z,7.60
2023-03-27T00:07:07.605Z,7.60
2023-03-27T00:09:39.231Z,7.60
2023-03-27T00:12:09.798Z,7.60
2023-03-27T00:14:38.719Z,7.60
2023-03-27T00:17:07.923Z,7.60
2023-03-27T00:19:41.011Z,7.60
2023-03-27T00:22:19.485Z,7.60
2023-03-27T00:25:15.441Z,7.70
2023-03-27T00:27:47.062Z,7.60
2023-03-27T00:30:16.148Z,7.70
2023-03-27T00:33:08.590Z,7.70
2023-03-27T00:35:57.729Z,7.70
2023-03-27T00:39:13.709Z,7.80
2023-03-27T00:42:14.062Z,7.70
2023-03-27T00:44:46.189Z,7.70
2023-03-27T00:47:38.035Z,7.70
2023-03-27T00:50:20.390Z,7.70
2023-03-27T00:52:56.759Z,7.60
2023-03-27T00:55:28.312Z,7.50
2023-03-27T00:58:17.489Z,7.40
2023-03-27T01:00:47.594Z,7.30
2023-03-27T01:03:18.546Z,7.20
2023-03-27T01:05:49.529Z,7.20
2023-03-27T01:08:40.898Z,7.30
2023-03-27T01:11:21.170Z,7.30
2023-03-27T01:14:47.457Z,7.20
2023-03-27T01:17:31.419Z,7.20
2023-03-27T01:21:07.166Z,7.20
2023-03-27T01:24:17.581Z,7.20
2023-03-27T01:27:08.160Z,7.20
2023-03-27T01:30:17.673Z,7.20
2023-03-27T01:33:42.168Z,7.20
2023-03-27T01:48:41.844Z,6.80
2023-03-27T01:57:08.779Z,6.70
2023-03-27T02:05:24.524Z,6.60
2023-03-27T02:08:00.224Z,6.60
2023-03-27T02:10:34.483Z,6.60
2023-03-27T02:13:08.547Z,6.50
2023-03-27T02:15:41.119Z,6.50
2023-03-27T02:18:39.896Z,6.40
2023-03-27T02:21:17.584Z,6.40
2023-03-27T02:23:50.224Z,6.30
2023-03-27T02:26:18.807Z,6.30
2023-03-27T02:29:11.016Z,6.20
2023-03-27T02:31:57.343Z,6.30
2023-03-27T02:34:45.456Z,6.30
2023-03-27T02:37:32.545Z,6.30
2023-03-27T02:40:16.519Z,6.30
2023-03-27T02:42:57.732Z,6.30
2023-03-27T02:45:38.121Z,6.30
2023-03-27T02:48:11.406Z,6.30
2023-03-27T02:50:45.901Z,6.30
2023-03-27T02:53:18.945Z,6.30
2023-03-27T02:55:55.761Z,6.30
2023-03-27T02:58:32.547Z,6.20
2023-03-27T03:01:03.449Z,6.20
2023-03-27T03:03:40.203Z,6.20
2023-03-27T03:06:31.999Z,6.20
2023-03-27T03:09:03.796Z,6.10
2023-03-27T03:11:37.774Z,6.10
2023-03-27T03:14:10.425Z,6.10
2023-03-27T03:16:41.189Z,6.10
2023-03-27T03:19:10.896Z,6.10
2023-03-27T03:21:39.783Z,6.10
2023-03-27T03:24:10.463Z,6.10
2023-03-27T03:26:40.575Z,6.10
2023-03-27T03:29:12.865Z,6.10
2023-03-27T03:31:46.060Z,6.10
2023-03-27T03:34:16.366Z,6.10
2023-03-27T03:36:50.555Z,6.10
2023-03-27T03:39:19.379Z,6.10
2023-03-27T03:41:50.572Z,6.20
2023-03-27T03:44:20.255Z,6.20
2023-03-27T03:46:49.970Z,6.30
2023-03-27T03:49:20.069Z,6.30
2023-03-27T03:52:04.222Z,6.30
2023-03-27T03:54:34.580Z,6.30
2023-03-27T03:57:03.610Z,6.40
2023-03-27T03:59:34.425Z,6.30
2023-03-27T04:02:06.193Z,6.30
2023-03-27T04:04:34.652Z,6.40
2023-03-27T04:07:23.391Z,6.30
2023-03-27T04:09:52.623Z,6.30
2023-03-27T04:12:21.765Z,6.40
2023-03-27T04:14:50.116Z,6.40
2023-03-27T04:17:19.977Z,6.40
2023-03-27T04:19:51.121Z,6.40
2023-03-27T04:22:22.981Z,6.30
2023-03-27T04:24:53.816Z,6.30
2023-03-27T04:27:23.686Z,6.30
2023-03-27T04:29:52.713Z,6.30
2023-03-27T04:32:26.441Z,6.30
2023-03-27T04:34:57.134Z,6.30
2023-03-27T04:37:48.156Z,6.20
2023-03-27T04:40:21.333Z,6.20
2023-03-27T04:42:53.309Z,6.20
2023-03-27T04:45:42.230Z,6.10
2023-03-27T04:48:11.898Z,6.10
2023-03-27T04:50:40.456Z,6.00
2023-03-27T04:53:10.369Z,6.00
2023-03-27T04:55:38.753Z,6.00
2023-03-27T04:58:08.072Z,5.90
2023-03-27T05:00:36.739Z,5.90
2023-03-27T05:03:05.148Z,5.90
2023-03-27T05:05:36.221Z,6.00
2023-03-27T05:08:05.870Z,6.00
2023-03-27T05:10:35.446Z,6.00
2023-03-27T05:13:03.449Z,6.00
2023-03-27T05:15:33.769Z,6.00
2023-03-27T05:18:02.841Z,6.10
2023-03-27T05:20:32.961Z,6.10
2023-03-27T05:23:02.522Z,6.10
2023-03-27T05:25:32.990Z,6.10
2023-03-27T05:28:01.525Z,6.10
2023-03-27T05:30:30.181Z,6.10
2023-03-27T05:32:59.470Z,6.20
2023-03-27T05:35:28.518Z,6.20
2023-03-27T05:37:57.633Z,6.20
2023-03-27T05:40:28.641Z,6.20
2023-03-27T05:42:57.918Z,6.20
2023-03-27T05:45:26.200Z,6.10
2023-03-27T05:47:56.076Z,6.10
2023-03-27T05:50:26.808Z,6.10
2023-03-27T05:52:58.722Z,6.10
2023-03-27T05:55:28.586Z,6.10
2023-03-27T05:57:58.878Z,6.10
2023-03-27T06:00:27.507Z,6.00
2023-03-27T06:02:57.478Z,6.00
2023-03-27T06:05:26.853Z,6.00
2023-03-27T06:07:55.870Z,6.00
2023-03-27T06:10:23.915Z,6.00
2023-03-27T06:13:00.845Z,6.10
2023-03-27T06:15:28.906Z,6.10
2023-03-27T06:17:57.016Z,6.10
2023-03-27T06:20:25.314Z,6.10
2023-03-27T06:22:56.377Z,6.00
2023-03-27T06:25:26.730Z,6.00
2023-03-27T06:27:56.338Z,6.00
2023-03-27T06:30:26.011Z,6.00
2023-03-27T06:32:57.769Z,6.10
2023-03-27T06:35:27.454Z,6.10
2023-03-27T06:37:56.528Z,6.10
2023-03-27T06:40:28.091Z,6.10
2023-03-27T06:42:59.757Z,6.10
2023-03-27T06:45:29.893Z,6.10
2023-03-27T06:48:16.914Z,6.20
2023-03-27T06:50:49.776Z,6.10
2023-03-27T06:55:50.501Z,6.20
2023-03-27T06:58:22.597Z,6.00
2023-03-27T07:00:51.630Z,6.10
2023-03-27T07:03:21.243Z,6.10
2023-03-27T07:05:49.729Z,6.10
2023-03-27T07:08:24.475Z,6.10
2023-03-27T07:13:25.755Z,6.10
2023-03-27T07:15:54.955Z,6.10
2023-03-27T07:18:23.416Z,6.10
2023-03-27T07:20:51.845Z,6.10
2023-03-27T07:23:22.051Z,6.10
2023-03-27T07:25:51.712Z,6.20
2023-03-27T07:28:20.985Z,6.30
2023-03-27T07:30:52.310Z,6.20
2023-03-27T07:33:21.636Z,6.30
2023-03-27T07:35:49.861Z,6.40
2023-03-27T07:38:18.336Z,6.50
2023-03-27T07:40:47.016Z,6.50
2023-03-27T07:43:15.303Z,6.60
2023-03-27T07:45:43.554Z,6.70
2023-03-27T07:48:17.386Z,6.70
2023-03-27T07:50:46.370Z,6.80
2023-03-27T07:53:32.676Z,6.70
2023-03-27T07:56:03.880Z,6.70
2023-03-27T07:58:32.141Z,6.80
2023-03-27T08:01:02.271Z,6.80
2023-03-27T08:03:32.491Z,6.80
2023-03-27T08:06:04.834Z,6.80
2023-03-27T08:08:34.412Z,6.90
2023-03-27T08:11:04.955Z,6.80
2023-03-27T08:13:33.125Z,6.80
2023-03-27T08:16:06.145Z,6.80
2023-03-27T08:18:36.845Z,6.80
2023-03-27T08:21:06.801Z,6.80
2023-03-27T08:23:35.525Z,6.80
2023-03-27T08:26:03.728Z,6.80
2023-03-27T08:28:33.765Z,6.80
2023-03-27T08:31:04.250Z,6.90
2023-03-27T08:33:32.196Z,6.90
2023-03-27T08:36:01.542Z,7.00
2023-03-27T08:38:33.237Z,6.90
2023-03-27T08:41:05.143Z,7.00
2023-03-27T08:43:38.462Z,7.00
2023-03-27T08:46:09.417Z,7.00
2023-03-27T08:48:43.310Z,7.00
2023-03-27T08:51:18.486Z,7.00
2023-03-27T08:53:52.785Z,7.10
2023-03-27T08:56:22.274Z,7.10
2023-03-27T08:58:50.425Z,7.10
2023-03-27T09:01:26.860Z,7.10
2023-03-27T09:04:01.916Z,7.20
2023-03-27T09:06:38.382Z,7.20
2023-03-27T09:09:13.913Z,7.20
2023-03-27T09:11:52.822Z,7.20
2023-03-27T09:14:29.126Z,7.20
2023-03-27T09:17:00.893Z,7.20
2023-03-27T09:19:38.321Z,7.20
2023-03-27T09:22:14.377Z,7.20
2023-03-27T09:24:44.633Z,7.30
2023-03-27T09:27:19.061Z,7.30
2023-03-27T09:30:05.025Z,7.30
2023-03-27T09:32:35.105Z,7.30
2023-03-27T09:35:05.197Z,7.40
2023-03-27T09:37:36.854Z,7.40
2023-03-27T09:40:12.935Z,7.40
2023-03-27T09:42:43.439Z,7.50
2023-03-27T09:45:13.973Z,7.60
2023-03-27T09:47:46.698Z,7.70
2023-03-27T09:50:27.754Z,7.70
2023-03-27T09:53:09.339Z,7.90
2023-03-27T09:55:50.583Z,7.90
2023-03-27T09:58:27.868Z,7.90
2023-03-27T10:01:14.545Z,7.90
2023-03-27T10:03:49.200Z,7.90
2023-03-27T10:06:27.898Z,7.90
2023-03-27T10:09:03.608Z,7.90
2023-03-27T10:11:34.444Z,8.00
2023-03-27T10:14:11.009Z,8.10
2023-03-27T10:16:41.910Z,8.10
2023-03-27T10:23:08.137Z,8.20
2023-03-27T10:25:40.142Z,8.10
2023-03-27T10:28:18.369Z,8.10
2023-03-27T10:30:47.162Z,8.00
2023-03-27T10:33:29.871Z,8.10
2023-03-27T10:35:59.069Z,8.00
2023-03-27T10:38:28.777Z,7.90
2023-03-27T10:40:58.791Z,7.90
2023-03-27T10:43:32.415Z,7.80
2023-03-27T10:46:04.730Z,7.80
2023-03-27T10:48:45.220Z,7.70
2023-03-27T10:51:33.126Z,7.70
2023-03-27T10:54:16.512Z,7.70
2023-03-27T10:56:55.020Z,7.70
2023-03-27T10:59:40.922Z,7.70
2023-03-27T11:02:16.616Z,7.80
2023-03-27T11:04:50.192Z,7.90
2023-03-27T11:07:23.356Z,8.00
2023-03-27T11:10:00.380Z,8.00
2023-03-27T11:12:31.840Z,7.90
2023-03-27T11:15:04.388Z,7.90
2023-03-27T11:17:39.575Z,7.90
2023-03-27T11:20:19.624Z,7.90
2023-03-27T11:22:52.585Z,7.80
2023-03-27T11:25:29.065Z,7.80
2023-03-27T11:28:04.731Z,7.70
2023-03-27T11:30:37.958Z,7.70
2023-03-27T11:33:28.782Z,7.80
2023-03-27T11:36:05.333Z,7.80
2023-03-27T11:38:38.526Z,7.80
2023-03-27T11:41:08.374Z,7.80
2023-03-27T11:43:40.707Z,7.80
2023-03-27T11:46:24.225Z,7.80
2023-03-27T11:49:07.116Z,7.80
2023-03-27T11:51:50.797Z,7.90
2023-03-27T11:54:35.459Z,7.90
2023-03-27T11:57:07.316Z,7.90
2023-03-27T11:59:59.206Z,8.00
2023-03-27T12:03:03.599Z,8.00
2023-03-27T12:05:46.456Z,8.10
2023-03-27T12:08:24.841Z,8.00
2023-03-27T12:10:56.137Z,7.90
2023-03-27T12:14:13.943Z,7.90
2023-03-27T12:17:18.241Z,7.90
2023-03-27T12:20:06.833Z,7.90
2023-03-27T12:22:45.181Z,7.90
2023-03-27T12:25:36.445Z,7.90
2023-03-27T12:28:23.061Z,8.00
2023-03-27T12:30:57.867Z,8.00
2023-03-27T12:33:41.748Z,8.00
2023-03-27T12:36:15.492Z,8.00
2023-03-27T12:38:44.795Z,8.10
2023-03-27T12:41:24.923Z,8.10
2023-03-27T12:43:57.808Z,8.20
2023-03-27T12:46:37.342Z,8.20
2023-03-27T12:49:47.724Z,8.30
2023-03-27T12:52:18.705Z,8.20
2023-03-27T12:55:07.446Z,8.30
2023-03-27T12:57:44.239Z,8.30
2023-03-27T13:00:22.192Z,8.30
2023-03-27T13:03:10.787Z,8.30
2023-03-27T13:06:12.718Z,8.30
2023-03-27T13:09:08.460Z,8.30
2023-03-27T13:11:49.457Z,8.40
2023-03-27T13:14:48.129Z,8.40
2023-03-27T13:17:39.556Z,8.40
2023-03-27T13:20:22.950Z,8.50
2023-03-27T13:23:11.513Z,8.60
2023-03-27T13:25:50.986Z,8.60
2023-03-27T13:28:34.353Z,8.60
2023-03-27T13:31:04.716Z,8.70
2023-03-27T13:33:47.531Z,8.70
2023-03-27T13:36:19.978Z,8.70
2023-03-27T13:39:21.130Z,8.70
2023-03-27T13:41:59.900Z,8.90
2023-03-27T13:44:43.356Z,8.90
2023-03-27T13:47:39.296Z,8.90
2023-03-27T13:50:25.384Z,8.90
2023-03-27T13:53:33.277Z,8.90
2023-03-27T13:56:14.863Z,8.80
2023-03-27T13:59:07.899Z,8.90
2023-03-27T14:01:46.379Z,9.00
2023-03-27T14:04:51.493Z,9.20
2023-03-27T14:07:59.434Z,9.30
2023-03-27T14:10:54.116Z,9.70
2023-03-27T14:13:53.181Z,10.00
2023-03-27T14:16:44.900Z,10.40
2023-03-27T14:19:46.597Z,10.70
2023-03-27T14:22:22.605Z,10.80
2023-03-27T14:24:57.730Z,10.90
2023-03-27T14:27:26.344Z,11.00
2023-03-27T14:30:09.470Z,11.20
2023-03-27T14:32:39.950Z,11.40
2023-03-27T14:35:23.819Z,11.60
2023-03-27T14:37:57.099Z,11.90
2023-03-27T14:40:29.904Z,12.20
2023-03-27T14:43:00.232Z,12.50
2023-03-27T14:45:33.095Z,12.70
2023-03-27T14:48:06.673Z,13.00
2023-03-27T14:50:36.671Z,13.20
2023-03-27T14:53:09.518Z,13.40
2023-03-27T14:55:39.865Z,13.20
2023-03-27T14:58:14.506Z,13.10
2023-03-27T15:00:43.054Z,13.00
2023-03-27T15:03:17.002Z,13.10
2023-03-27T15:05:57.277Z,13.30
2023-03-27T15:08:28.916Z,13.50
2023-03-27T15:10:57.128Z,13.40
2023-03-27T15:13:26.474Z,13.10
2023-03-27T15:15:58.213Z,12.90
2023-03-27T15:18:32.889Z,12.40
2023-03-27T15:21:04.415Z,12.10
2023-03-27T15:23:38.301Z,11.70
2023-03-27T15:26:13.217Z,11.50
2023-03-27T15:28:45.268Z,11.40
2023-03-27T15:31:15.134Z,11.40
2023-03-27T15:33:52.539Z,11.30
2023-03-27T15:36:26.708Z,11.30
2023-03-27T15:38:55.607Z,11.30
2023-03-27T15:41:44.636Z,11.30
2023-03-27T15:44:17.910Z,11.20
2023-03-27T15:46:55.435Z,11.00
2023-03-27T15:49:28.751Z,10.90
2023-03-27T15:51:58.056Z,10.80
2023-03-27T15:54:32.600Z,10.70
2023-03-27T15:57:10.540Z,10.50
2023-03-27T15:59:51.844Z,10.40
2023-03-27T16:02:22.433Z,10.30
2023-03-27T16:04:55.529Z,10.10
2023-03-27T16:07:27.080Z,10.00
2023-03-27T16:09:56.471Z,9.90
2023-03-27T16:12:30.134Z,9.80
2023-03-27T16:14:58.830Z,9.70
2023-03-27T16:17:34.232Z,9.60
2023-03-27T16:20:25.191Z,9.60
2023-03-27T16:22:53.424Z,9.50
2023-03-27T16:25:21.447Z,9.50
2023-03-27T16:27:51.817Z,9.40
2023-03-27T16:30:24.137Z,9.40
2023-03-27T16:32:52.340Z,9.30
2023-03-27T16:35:22.370Z,9.20
2023-03-27T16:37:50.692Z,9.10
2023-03-27T16:40:18.850Z,8.90
2023-03-27T16:42:47.211Z,9.00
2023-03-27T16:45:15.495Z,8.90
2023-03-27T16:47:43.498Z,8.90
2023-03-27T16:50:17.840Z,8.80
2023-03-27T16:52:47.243Z,8.80
2023-03-27T16:55:16.914Z,8.80
2023-03-27T16:57:46.104Z,8.70
2023-03-27T17:00:16.798Z,8.70
2023-03-27T17:02:46.937Z,8.60
2023-03-27T17:05:15.059Z,8.50
2023-03-27T17:07:45.083Z,8.50
2023-03-27T17:10:14.820Z,8.40
2023-03-27T17:12:42.885Z,8.30
2023-03-27T17:18:17.910Z,8.30
2023-03-27T17:20:46.349Z,8.30
2023-03-27T17:23:15.106Z,8.30
2023-03-27T17:25:45.345Z,8.30
2023-03-27T17:28:13.885Z,8.30
2023-03-27T17:33:13.767Z,8.30
2023-03-27T17:35:44.023Z,8.30
2023-03-27T17:38:12.072Z,8.20
2023-03-27T17:40:41.567Z,8.10
2023-03-27T17:43:11.083Z,8.10
2023-03-27T17:45:41.841Z,8.10
2023-03-27T17:48:10.879Z,8.20
2023-03-27T17:50:39.400Z,8.20
2023-03-27T17:53:08.021Z,8.10
2023-03-27T17:55:38.829Z,8.20
2023-03-27T17:58:10.759Z,8.10
2023-03-27T18:00:44.517Z,8.20
2023-03-27T18:03:13.444Z,8.20
2023-03-27T18:05:45.636Z,8.10
2023-03-27T18:08:23.061Z,8.20
2023-03-27T18:10:59.136Z,8.10
2023-03-27T18:13:52.344Z,8.10
2023-03-27T18:16:24.129Z,8.00
2023-03-27T18:18:58.737Z,8.00
2023-03-27T18:21:35.430Z,7.90
2023-03-27T18:24:06.051Z,7.90
2023-03-27T18:26:54.239Z,7.90
2023-03-27T18:29:24.466Z,7.90
2023-03-27T18:32:15.020Z,7.90
2023-03-27T18:34:43.413Z,7.90
2023-03-27T18:37:12.504Z,7.80
2023-03-27T18:39:42.885Z,7.70
2023-03-27T18:42:11.483Z,7.60
2023-03-27T18:44:47.577Z,7.60
2023-03-27T18:47:42.502Z,7.60
2023-03-27T18:50:14.523Z,7.50
2023-03-27T18:52:43.339Z,7.50
2023-03-27T18:55:13.178Z,7.40
2023-03-27T18:57:44.439Z,7.40
2023-03-27T19:00:21.258Z,7.30
2023-03-27T19:03:17.934Z,7.30
2023-03-27T19:05:46.930Z,7.30
2023-03-27T19:08:17.371Z,7.30
2023-03-27T19:11:08.046Z,7.30
2023-03-27T19:13:36.300Z,7.40
2023-03-27T19:16:14.339Z,7.30
2023-03-27T19:19:10.469Z,7.30
2023-03-27T19:22:00.515Z,7.40
2023-03-27T19:24:29.030Z,7.30
2023-03-27T19:26:57.132Z,7.30
2023-03-27T19:29:29.283Z,7.30
2023-03-27T19:31:58.324Z,7.20
2023-03-27T19:34:42.515Z,7.30
2023-03-27T19:37:32.098Z,7.30
2023-03-27T19:40:01.048Z,7.30
2023-03-27T19:42:32.408Z,7.30
2023-03-27T19:45:03.174Z,7.30
2023-03-27T19:47:34.240Z,7.40
2023-03-27T19:50:05.330Z,7.30
2023-03-27T19:52:36.294Z,7.40
2023-03-27T19:55:06.712Z,7.40
2023-03-27T19:57:36.101Z,7.30
2023-03-27T20:00:39.124Z,7.30
2023-03-27T20:03:10.439Z,7.30
2023-03-27T20:05:44.880Z,7.30
2023-03-27T20:08:13.770Z,7.30
2023-03-27T20:10:44.084Z,7.40
2023-03-27T20:13:56.574Z,7.40
2023-03-27T20:16:31.038Z,7.40
2023-03-27T20:19:05.039Z,7.40
2023-03-27T20:21:37.645Z,7.40
2023-03-27T20:24:10.139Z,7.40
2023-03-27T20:26:53.630Z,7.40
2023-03-27T20:29:24.627Z,7.30
2023-03-27T20:31:53.468Z,7.20
2023-03-27T20:34:22.735Z,7.20
2023-03-27T20:36:54.948Z,7.20
2023-03-27T20:39:24.451Z,7.10
2023-03-27T20:42:02.112Z,7.10
2023-03-27T20:44:36.340Z,7.10
2023-03-27T20:47:11.257Z,7.10
2023-03-27T20:49:47.448Z,7.10
2023-03-27T20:52:23.474Z,7.10
2023-03-27T20:55:22.910Z,7.10
2023-03-27T20:57:58.546Z,7.10
2023-03-27T21:00:27.198Z,7.10
2023-03-27T21:02:55.781Z,7.10
2023-03-27T21:05:25.939Z,7.10
2023-03-27T21:07:56.666Z,7.10
2023-03-27T21:10:48.431Z,7.10
2023-03-27T21:13:16.697Z,7.10
2023-03-27T21:16:08.482Z,7.10
2023-03-27T21:18:43.984Z,7.00
2023-03-27T21:21:13.343Z,7.00
2023-03-27T21:23:44.299Z,7.00
2023-03-27T21:26:14.222Z,7.00
2023-03-27T21:28:45.744Z,7.00
2023-03-27T21:31:14.174Z,7.00
2023-03-27T21:33:44.150Z,7.00
2023-03-27T21:36:15.364Z,7.00
2023-03-27T21:38:48.177Z,7.00
2023-03-27T21:41:20.309Z,6.90
2023-03-27T21:44:08.370Z,6.90
2023-03-27T21:46:40.591Z,6.90
2023-03-27T21:49:17.927Z,6.90
2023-03-27T21:51:49.294Z,6.90
2023-03-27T21:54:22.571Z,6.90
2023-03-27T21:57:13.172Z,6.90
2023-03-27T21:59:42.527Z,6.90
2023-03-27T22:02:36.514Z,6.80
2023-03-27T22:05:27.857Z,6.80
2023-03-27T22:08:24.807Z,6.70
2023-03-27T22:11:00.406Z,6.70
2023-03-27T22:13:30.385Z,6.80
2023-03-27T22:16:20.935Z,6.70
2023-03-27T22:18:50.838Z,6.70
2023-03-27T22:21:22.206Z,6.60
2023-03-27T22:23:52.589Z,6.60
2023-03-27T22:26:28.755Z,6.60
2023-03-27T22:28:57.926Z,6.60
2023-03-27T22:31:27.107Z,6.60
2023-03-27T22:33:56.270Z,6.50
2023-03-27T22:36:26.142Z,6.50
2023-03-27T22:38:58.579Z,6.50
2023-03-27T22:41:29.934Z,6.50
2023-03-27T22:44:01.129Z,6.50
2023-03-27T22:46:29.684Z,6.40
2023-03-27T22:49:06.690Z,6.40
2023-03-27T22:51:34.809Z,6.30
2023-03-27T22:54:06.058Z,6.40
2023-03-27T22:56:37.766Z,6.40
2023-03-27T22:59:09.121Z,6.40
2023-03-27T23:01:38.794Z,6.30
2023-03-27T23:04:10.348Z,6.30
2023-03-27T23:06:39.656Z,6.30
2023-03-27T23:09:10.730Z,6.30
2023-03-27T23:11:50.941Z,6.20
2023-03-27T23:14:22.867Z,6.20
2023-03-27T23:17:00.760Z,6.20
2023-03-27T23:19:31.863Z,6.20
2023-03-27T23:22:02.576Z,6.10
2023-03-27T23:24:31.166Z,6.10
2023-03-27T23:27:08.885Z,6.10
2023-03-27T23:29:37.191Z,6.10
2023-03-27T23:32:07.197Z,6.10
2023-03-27T23:34:39.064Z,6.00
2023-03-27T23:37:29.297Z,6.00
2023-03-27T23:40:03.443Z,6.00
2023-03-27T23:42:37.774Z,5.90
2023-03-27T23:45:08.211Z,6.00
2023-03-27T23:47:37.334Z,6.00
2023-03-27T23:50:06.419Z,5.90
2023-03-27T23:52:36.933Z,5.90
2023-03-27T23:55:11.748Z,5.90
2023-03-27T23:57:41.793Z,5.90
